sensor_id;sensor_type;location;lat;lon;timestamp;P1;durP1;ratioP1;P2;durP2;ratioP2
40288;SDS011;28991;52.028;5.526;2024-03-08T00:02:02;7.43;;;4.78;;
40288;SDS011;28991;52.028;5.526;2024-03-08T00:04:28;5.00;;;4.50;;
40288;SDS011;28991;52.028;5.526;2024-03-08T00:06:54;6.50;;;4.45;;
40288;SDS011;28991;52.028;5.526;2024-03-08T00:09:20;9.35;;;4.60;;
40288;SDS011;28991;52.028;5.526;2024-03-08T00:11:46;6.25;;;4.50;;
40288;SDS011;28991;52.028;5.526;2024-03-08T00:14:13;7.30;;;4.78;;
40288;SDS011;28991;52.028;5.526;2024-03-08T00:16:39;5.57;;;4.30;;
40288;SDS011;28991;52.028;5.526;2024-03-08T00:19:08;7.65;;;4.60;;
40288;SDS011;28991;52.028;5.526;2024-03-08T00:21:34;5.40;;;4.47;;
40288;SDS011;28991;52.028;5.526;2024-03-08T00:24:00;6.00;;;4.60;;
40288;SDS011;28991;52.028;5.526;2024-03-08T00:26:26;6.80;;;4.68;;
40288;SDS011;28991;52.028;5.526;2024-03-08T00:28:51;8.50;;;4.60;;
40288;SDS011;28991;52.028;5.526;2024-03-08T00:31:18;7.85;;;5.03;;
40288;SDS011;28991;52.028;5.526;2024-03-08T00:33:45;6.15;;;4.95;;
40288;SDS011;28991;52.028;5.526;2024-03-08T00:36:10;7.13;;;4.50;;
40288;SDS011;28991;52.028;5.526;2024-03-08T00:38:36;9.48;;;4.57;;
40288;SDS011;28991;52.028;5.526;2024-03-08T00:41:01;7.45;;;4.45;;
40288;SDS011;28991;52.028;5.526;2024-03-08T00:43:27;8.25;;;4.50;;
40288;SDS011;28991;52.028;5.526;2024-03-08T00:45:55;6.22;;;4.78;;
40288;SDS011;28991;52.028;5.526;2024-03-08T00:48:21;7.97;;;4.80;;
40288;SDS011;28991;52.028;5.526;2024-03-08T00:50:46;6.35;;;4.22;;
40288;SDS011;28991;52.028;5.526;2024-03-08T00:53:12;6.20;;;4.68;;
40288;SDS011;28991;52.028;5.526;2024-03-08T00:55:38;7.85;;;4.90;;
40288;SDS011;28991;52.028;5.526;2024-03-08T00:58:04;6.50;;;4.90;;
40288;SDS011;28991;52.028;5.526;2024-03-08T01:00:29;6.47;;;5.18;;
40288;SDS011;28991;52.028;5.526;2024-03-08T01:02:55;7.47;;;4.88;;
40288;SDS011;28991;52.028;5.526;2024-03-08T01:05:21;9.88;;;4.72;;
40288;SDS011;28991;52.028;5.526;2024-03-08T01:07:48;6.32;;;4.88;;
40288;SDS011;28991;52.028;5.526;2024-03-08T01:10:14;7.43;;;4.82;;
40288;SDS011;28991;52.028;5.526;2024-03-08T01:12:40;6.13;;;4.30;;
40288;SDS011;28991;52.028;5.526;2024-03-08T01:15:08;6.80;;;4.65;;
40288;SDS011;28991;52.028;5.526;2024-03-08T01:17:35;7.07;;;4.20;;
40288;SDS011;28991;52.028;5.526;2024-03-08T01:20:01;8.32;;;4.40;;
40288;SDS011;28991;52.028;5.526;2024-03-08T01:22:27;5.85;;;4.88;;
40288;SDS011;28991;52.028;5.526;2024-03-08T01:24:54;5.22;;;4.20;;
40288;SDS011;28991;52.028;5.526;2024-03-08T01:27:20;5.20;;;4.50;;
40288;SDS011;28991;52.028;5.526;2024-03-08T01:29:46;6.60;;;4.30;;
40288;SDS011;28991;52.028;5.526;2024-03-08T01:32:12;6.15;;;4.68;;
40288;SDS011;28991;52.028;5.526;2024-03-08T01:34:38;4.95;;;4.32;;
40288;SDS011;28991;52.028;5.526;2024-03-08T01:37:04;6.88;;;4.47;;
40288;SDS011;28991;52.028;5.526;2024-03-08T01:39:29;6.38;;;4.10;;
40288;SDS011;28991;52.028;5.526;2024-03-08T01:41:55;6.95;;;4.45;;
40288;SDS011;28991;52.028;5.526;2024-03-08T01:44:20;6.18;;;4.60;;
40288;SDS011;28991;52.028;5.526;2024-03-08T01:46:46;5.90;;;4.47;;
40288;SDS011;28991;52.028;5.526;2024-03-08T01:49:13;8.00;;;4.20;;
40288;SDS011;28991;52.028;5.526;2024-03-08T01:51:40;8.18;;;4.57;;
40288;SDS011;28991;52.028;5.526;2024-03-08T01:54:07;7.68;;;3.97;;
40288;SDS011;28991;52.028;5.526;2024-03-08T01:56:35;6.55;;;4.50;;
40288;SDS011;28991;52.028;5.526;2024-03-08T01:59:03;5.32;;;4.40;;
40288;SDS011;28991;52.028;5.526;2024-03-08T02:01:29;6.40;;;4.88;;
40288;SDS011;28991;52.028;5.526;2024-03-08T02:03:55;5.40;;;4.07;;
40288;SDS011;28991;52.028;5.526;2024-03-08T02:06:20;6.18;;;4.10;;
40288;SDS011;28991;52.028;5.526;2024-03-08T02:08:46;5.60;;;4.75;;
40288;SDS011;28991;52.028;5.526;2024-03-08T02:11:12;6.13;;;4.45;;
40288;SDS011;28991;52.028;5.526;2024-03-08T02:13:38;5.00;;;4.28;;
40288;SDS011;28991;52.028;5.526;2024-03-08T02:16:04;5.82;;;4.70;;
40288;SDS011;28991;52.028;5.526;2024-03-08T02:18:33;6.00;;;4.55;;
40288;SDS011;28991;52.028;5.526;2024-03-08T02:20:59;6.50;;;4.65;;
40288;SDS011;28991;52.028;5.526;2024-03-08T02:23:26;6.93;;;4.50;;
40288;SDS011;28991;52.028;5.526;2024-03-08T02:25:52;6.40;;;4.40;;
40288;SDS011;28991;52.028;5.526;2024-03-08T02:28:18;7.32;;;4.88;;
40288;SDS011;28991;52.028;5.526;2024-03-08T02:30:45;6.18;;;4.60;;
40288;SDS011;28991;52.028;5.526;2024-03-08T02:33:14;5.70;;;4.45;;
40288;SDS011;28991;52.028;5.526;2024-03-08T02:35:42;5.78;;;4.25;;
40288;SDS011;28991;52.028;5.526;2024-03-08T02:38:10;6.20;;;4.50;;
40288;SDS011;28991;52.028;5.526;2024-03-08T02:40:43;6.97;;;4.13;;
40288;SDS011;28991;52.028;5.526;2024-03-08T02:43:10;10.27;;;4.75;;
40288;SDS011;28991;52.028;5.526;2024-03-08T02:45:36;4.72;;;4.15;;
40288;SDS011;28991;52.028;5.526;2024-03-08T02:48:02;5.30;;;4.00;;
40288;SDS011;28991;52.028;5.526;2024-03-08T02:50:28;5.35;;;3.90;;
40288;SDS011;28991;52.028;5.526;2024-03-08T02:52:53;5.40;;;3.95;;
40288;SDS011;28991;52.028;5.526;2024-03-08T02:55:19;5.65;;;4.57;;
40288;SDS011;28991;52.028;5.526;2024-03-08T02:57:45;7.28;;;4.63;;
40288;SDS011;28991;52.028;5.526;2024-03-08T03:00:14;6.63;;;5.03;;
40288;SDS011;28991;52.028;5.526;2024-03-08T03:02:44;6.25;;;4.43;;
40288;SDS011;28991;52.028;5.526;2024-03-08T03:05:10;7.88;;;4.82;;
40288;SDS011;28991;52.028;5.526;2024-03-08T03:07:36;6.47;;;4.80;;
40288;SDS011;28991;52.028;5.526;2024-03-08T03:10:02;5.60;;;4.97;;
40288;SDS011;28991;52.028;5.526;2024-03-08T03:12:29;6.15;;;4.20;;
40288;SDS011;28991;52.028;5.526;2024-03-08T03:14:56;7.75;;;4.78;;
40288;SDS011;28991;52.028;5.526;2024-03-08T03:17:24;5.00;;;4.05;;
40288;SDS011;28991;52.028;5.526;2024-03-08T03:19:51;5.63;;;4.38;;
40288;SDS011;28991;52.028;5.526;2024-03-08T03:22:17;5.55;;;4.10;;
40288;SDS011;28991;52.028;5.526;2024-03-08T03:24:43;6.70;;;4.30;;
40288;SDS011;28991;52.028;5.526;2024-03-08T03:27:11;5.90;;;4.00;;
40288;SDS011;28991;52.028;5.526;2024-03-08T03:29:40;5.20;;;4.07;;
40288;SDS011;28991;52.028;5.526;2024-03-08T03:32:13;5.68;;;4.20;;
40288;SDS011;28991;52.028;5.526;2024-03-08T03:34:40;7.03;;;4.20;;
40288;SDS011;28991;52.028;5.526;2024-03-08T03:37:06;6.35;;;4.32;;
40288;SDS011;28991;52.028;5.526;2024-03-08T03:39:36;4.88;;;4.38;;
40288;SDS011;28991;52.028;5.526;2024-03-08T03:42:16;6.68;;;4.57;;
40288;SDS011;28991;52.028;5.526;2024-03-08T03:44:45;6.22;;;3.95;;
40288;SDS011;28991;52.028;5.526;2024-03-08T03:47:14;6.55;;;4.70;;
40288;SDS011;28991;52.028;5.526;2024-03-08T03:49:43;6.80;;;4.55;;
40288;SDS011;28991;52.028;5.526;2024-03-08T03:52:09;6.40;;;3.90;;
40288;SDS011;28991;52.028;5.526;2024-03-08T03:54:35;6.80;;;4.57;;
40288;SDS011;28991;52.028;5.526;2024-03-08T03:57:01;5.13;;;4.20;;
40288;SDS011;28991;52.028;5.526;2024-03-08T03:59:27;5.78;;;4.63;;
40288;SDS011;28991;52.028;5.526;2024-03-08T04:01:53;4.72;;;4.00;;
40288;SDS011;28991;52.028;5.526;2024-03-08T04:04:19;4.82;;;4.32;;
40288;SDS011;28991;52.028;5.526;2024-03-08T04:06:49;6.03;;;4.30;;
40288;SDS011;28991;52.028;5.526;2024-03-08T04:09:16;5.25;;;3.97;;
40288;SDS011;28991;52.028;5.526;2024-03-08T04:11:44;6.25;;;4.22;;
40288;SDS011;28991;52.028;5.526;2024-03-08T04:14:09;5.53;;;4.03;;
40288;SDS011;28991;52.028;5.526;2024-03-08T04:16:35;6.03;;;4.40;;
40288;SDS011;28991;52.028;5.526;2024-03-08T04:19:01;4.82;;;4.03;;
40288;SDS011;28991;52.028;5.526;2024-03-08T04:21:32;7.78;;;4.35;;
40288;SDS011;28991;52.028;5.526;2024-03-08T04:23:58;5.72;;;3.95;;
40288;SDS011;28991;52.028;5.526;2024-03-08T04:26:23;7.03;;;4.40;;
40288;SDS011;28991;52.028;5.526;2024-03-08T04:28:49;6.32;;;4.40;;
40288;SDS011;28991;52.028;5.526;2024-03-08T04:31:14;4.78;;;4.00;;
40288;SDS011;28991;52.028;5.526;2024-03-08T04:33:40;5.25;;;4.03;;
40288;SDS011;28991;52.028;5.526;2024-03-08T04:36:06;5.75;;;4.07;;
40288;SDS011;28991;52.028;5.526;2024-03-08T04:38:32;4.30;;;3.70;;
40288;SDS011;28991;52.028;5.526;2024-03-08T04:40:58;4.53;;;3.45;;
40288;SDS011;28991;52.028;5.526;2024-03-08T04:43:24;5.70;;;4.32;;
40288;SDS011;28991;52.028;5.526;2024-03-08T04:45:51;7.95;;;4.65;;
40288;SDS011;28991;52.028;5.526;2024-03-08T04:48:17;4.63;;;3.90;;
40288;SDS011;28991;52.028;5.526;2024-03-08T04:50:42;5.30;;;4.07;;
40288;SDS011;28991;52.028;5.526;2024-03-08T04:53:09;6.15;;;4.30;;
40288;SDS011;28991;52.028;5.526;2024-03-08T04:55:35;6.88;;;4.05;;
40288;SDS011;28991;52.028;5.526;2024-03-08T04:58:02;4.13;;;3.67;;
40288;SDS011;28991;52.028;5.526;2024-03-08T05:00:29;5.03;;;4.53;;
40288;SDS011;28991;52.028;5.526;2024-03-08T05:02:55;5.18;;;4.38;;
40288;SDS011;28991;52.028;5.526;2024-03-08T05:05:20;4.47;;;3.78;;
40288;SDS011;28991;52.028;5.526;2024-03-08T05:07:47;4.63;;;4.07;;
40288;SDS011;28991;52.028;5.526;2024-03-08T05:10:13;5.97;;;4.03;;
40288;SDS011;28991;52.028;5.526;2024-03-08T05:12:42;5.65;;;3.97;;
40288;SDS011;28991;52.028;5.526;2024-03-08T05:15:11;5.28;;;4.18;;
40288;SDS011;28991;52.028;5.526;2024-03-08T05:17:36;4.90;;;4.30;;
40288;SDS011;28991;52.028;5.526;2024-03-08T05:20:02;4.90;;;4.10;;
40288;SDS011;28991;52.028;5.526;2024-03-08T05:22:29;4.85;;;3.80;;
40288;SDS011;28991;52.028;5.526;2024-03-08T05:24:54;5.47;;;4.10;;
40288;SDS011;28991;52.028;5.526;2024-03-08T05:27:20;5.47;;;4.10;;
40288;SDS011;28991;52.028;5.526;2024-03-08T05:29:46;4.97;;;3.88;;
40288;SDS011;28991;52.028;5.526;2024-03-08T05:32:11;5.05;;;4.00;;
40288;SDS011;28991;52.028;5.526;2024-03-08T05:34:37;4.20;;;3.55;;
40288;SDS011;28991;52.028;5.526;2024-03-08T05:37:03;7.35;;;3.78;;
40288;SDS011;28991;52.028;5.526;2024-03-08T05:39:29;5.63;;;4.38;;
40288;SDS011;28991;52.028;5.526;2024-03-08T05:41:55;4.60;;;3.72;;
40288;SDS011;28991;52.028;5.526;2024-03-08T05:44:20;4.75;;;4.20;;
40288;SDS011;28991;52.028;5.526;2024-03-08T05:46:46;4.85;;;4.18;;
40288;SDS011;28991;52.028;5.526;2024-03-08T05:49:12;4.80;;;4.15;;
40288;SDS011;28991;52.028;5.526;2024-03-08T05:51:39;5.18;;;4.03;;
40288;SDS011;28991;52.028;5.526;2024-03-08T05:54:09;5.30;;;4.15;;
40288;SDS011;28991;52.028;5.526;2024-03-08T05:56:36;5.78;;;4.55;;
40288;SDS011;28991;52.028;5.526;2024-03-08T05:59:02;5.78;;;3.83;;
40288;SDS011;28991;52.028;5.526;2024-03-08T06:01:28;5.57;;;4.20;;
40288;SDS011;28991;52.028;5.526;2024-03-08T06:03:54;4.57;;;3.50;;
40288;SDS011;28991;52.028;5.526;2024-03-08T06:06:21;4.35;;;3.42;;
40288;SDS011;28991;52.028;5.526;2024-03-08T06:08:50;5.65;;;4.00;;
40288;SDS011;28991;52.028;5.526;2024-03-08T06:11:17;7.22;;;5.55;;
40288;SDS011;28991;52.028;5.526;2024-03-08T06:13:44;8.52;;;5.95;;
40288;SDS011;28991;52.028;5.526;2024-03-08T06:16:10;6.15;;;5.25;;
40288;SDS011;28991;52.028;5.526;2024-03-08T06:18:36;7.53;;;6.32;;
40288;SDS011;28991;52.028;5.526;2024-03-08T06:21:05;6.57;;;5.88;;
40288;SDS011;28991;52.028;5.526;2024-03-08T06:23:35;6.90;;;5.57;;
40288;SDS011;28991;52.028;5.526;2024-03-08T06:28:29;6.78;;;5.93;;
40288;SDS011;28991;52.028;5.526;2024-03-08T06:30:55;6.03;;;5.43;;
40288;SDS011;28991;52.028;5.526;2024-03-08T06:33:21;6.40;;;5.35;;
40288;SDS011;28991;52.028;5.526;2024-03-08T06:35:46;5.18;;;4.68;;
40288;SDS011;28991;52.028;5.526;2024-03-08T06:38:12;5.53;;;4.95;;
40288;SDS011;28991;52.028;5.526;2024-03-08T06:40:37;6.35;;;4.63;;
40288;SDS011;28991;52.028;5.526;2024-03-08T06:43:03;4.25;;;3.85;;
40288;SDS011;28991;52.028;5.526;2024-03-08T06:45:32;4.22;;;3.72;;
40288;SDS011;28991;52.028;5.526;2024-03-08T06:47:57;4.65;;;4.00;;
40288;SDS011;28991;52.028;5.526;2024-03-08T06:50:23;4.13;;;3.72;;
40288;SDS011;28991;52.028;5.526;2024-03-08T06:52:48;5.03;;;4.45;;
40288;SDS011;28991;52.028;5.526;2024-03-08T06:55:18;4.65;;;4.20;;
40288;SDS011;28991;52.028;5.526;2024-03-08T06:57:44;4.45;;;4.03;;
40288;SDS011;28991;52.028;5.526;2024-03-08T07:00:10;3.85;;;3.50;;
40288;SDS011;28991;52.028;5.526;2024-03-08T07:02:38;4.10;;;3.70;;
40288;SDS011;28991;52.028;5.526;2024-03-08T07:05:05;5.05;;;4.05;;
40288;SDS011;28991;52.028;5.526;2024-03-08T07:07:35;5.45;;;4.65;;
40288;SDS011;28991;52.028;5.526;2024-03-08T07:10:01;4.60;;;4.00;;
40288;SDS011;28991;52.028;5.526;2024-03-08T07:12:26;5.30;;;4.55;;
40288;SDS011;28991;52.028;5.526;2024-03-08T07:14:52;5.63;;;4.97;;
40288;SDS011;28991;52.028;5.526;2024-03-08T07:17:18;4.78;;;4.25;;
40288;SDS011;28991;52.028;5.526;2024-03-08T07:19:43;5.82;;;4.82;;
40288;SDS011;28991;52.028;5.526;2024-03-08T07:22:10;5.25;;;4.40;;
40288;SDS011;28991;52.028;5.526;2024-03-08T07:24:36;5.97;;;4.93;;
40288;SDS011;28991;52.028;5.526;2024-03-08T07:27:02;4.95;;;4.45;;
40288;SDS011;28991;52.028;5.526;2024-03-08T07:29:30;6.07;;;5.22;;
40288;SDS011;28991;52.028;5.526;2024-03-08T07:31:56;4.55;;;4.10;;
40288;SDS011;28991;52.028;5.526;2024-03-08T07:34:28;4.43;;;4.03;;
40288;SDS011;28991;52.028;5.526;2024-03-08T07:36:57;5.25;;;4.75;;
40288;SDS011;28991;52.028;5.526;2024-03-08T07:39:22;5.18;;;4.68;;
40288;SDS011;28991;52.028;5.526;2024-03-08T07:41:48;5.22;;;4.72;;
40288;SDS011;28991;52.028;5.526;2024-03-08T07:44:17;5.65;;;5.15;;
40288;SDS011;28991;52.028;5.526;2024-03-08T07:46:43;5.32;;;4.82;;
40288;SDS011;28991;52.028;5.526;2024-03-08T07:49:09;5.10;;;4.60;;
40288;SDS011;28991;52.028;5.526;2024-03-08T07:51:39;5.68;;;4.75;;
40288;SDS011;28991;52.028;5.526;2024-03-08T07:54:05;5.65;;;4.95;;
40288;SDS011;28991;52.028;5.526;2024-03-08T07:56:34;5.75;;;5.15;;
40288;SDS011;28991;52.028;5.526;2024-03-08T07:59:01;5.43;;;4.78;;
40288;SDS011;28991;52.028;5.526;2024-03-08T08:01:28;6.40;;;5.75;;
40288;SDS011;28991;52.028;5.526;2024-03-08T08:03:55;7.22;;;5.28;;
40288;SDS011;28991;52.028;5.526;2024-03-08T08:06:21;5.97;;;5.30;;
40288;SDS011;28991;52.028;5.526;2024-03-08T08:08:47;5.93;;;5.30;;
40288;SDS011;28991;52.028;5.526;2024-03-08T08:11:13;6.18;;;5.57;;
40288;SDS011;28991;52.028;5.526;2024-03-08T08:13:40;6.35;;;5.70;;
40288;SDS011;28991;52.028;5.526;2024-03-08T08:16:08;6.13;;;5.53;;
40288;SDS011;28991;52.028;5.526;2024-03-08T08:18:34;5.95;;;5.35;;
40288;SDS011;28991;52.028;5.526;2024-03-08T08:21:00;9.23;;;5.25;;
40288;SDS011;28991;52.028;5.526;2024-03-08T08:23:26;6.13;;;5.38;;
40288;SDS011;28991;52.028;5.526;2024-03-08T08:25:51;6.38;;;5.78;;
40288;SDS011;28991;52.028;5.526;2024-03-08T08:28:17;6.55;;;5.90;;
40288;SDS011;28991;52.028;5.526;2024-03-08T08:30:43;6.13;;;5.47;;
40288;SDS011;28991;52.028;5.526;2024-03-08T08:33:10;6.57;;;5.97;;
40288;SDS011;28991;52.028;5.526;2024-03-08T08:35:38;6.35;;;5.47;;
40288;SDS011;28991;52.028;5.526;2024-03-08T08:38:04;5.70;;;5.18;;
40288;SDS011;28991;52.028;5.526;2024-03-08T08:40:30;5.95;;;5.35;;
40288;SDS011;28991;52.028;5.526;2024-03-08T08:42:58;5.20;;;4.68;;
40288;SDS011;28991;52.028;5.526;2024-03-08T08:45:24;6.38;;;5.30;;
40288;SDS011;28991;52.028;5.526;2024-03-08T08:47:50;6.15;;;5.55;;
40288;SDS011;28991;52.028;5.526;2024-03-08T08:50:16;6.38;;;5.28;;
40288;SDS011;28991;52.028;5.526;2024-03-08T08:52:48;6.32;;;5.70;;
40288;SDS011;28991;52.028;5.526;2024-03-08T08:55:14;6.05;;;5.45;;
40288;SDS011;28991;52.028;5.526;2024-03-08T08:57:40;9.65;;;5.38;;
40288;SDS011;28991;52.028;5.526;2024-03-08T09:00:06;7.40;;;6.22;;
40288;SDS011;28991;52.028;5.526;2024-03-08T09:02:33;11.20;;;6.05;;
40288;SDS011;28991;52.028;5.526;2024-03-08T09:04:59;12.15;;;6.47;;
40288;SDS011;28991;52.028;5.526;2024-03-08T09:07:26;7.78;;;6.25;;
40288;SDS011;28991;52.028;5.526;2024-03-08T09:09:52;8.20;;;6.03;;
40288;SDS011;28991;52.028;5.526;2024-03-08T09:12:22;7.65;;;5.45;;
40288;SDS011;28991;52.028;5.526;2024-03-08T09:14:48;8.40;;;5.70;;
40288;SDS011;28991;52.028;5.526;2024-03-08T09:17:14;6.60;;;5.57;;
40288;SDS011;28991;52.028;5.526;2024-03-08T09:19:42;7.07;;;5.93;;
40288;SDS011;28991;52.028;5.526;2024-03-08T09:22:08;6.15;;;5.55;;
40288;SDS011;28991;52.028;5.526;2024-03-08T09:24:34;6.18;;;5.43;;
40288;SDS011;28991;52.028;5.526;2024-03-08T09:26:59;8.27;;;5.82;;
40288;SDS011;28991;52.028;5.526;2024-03-08T09:29:25;9.00;;;6.03;;
40288;SDS011;28991;52.028;5.526;2024-03-08T09:31:50;6.60;;;5.28;;
40288;SDS011;28991;52.028;5.526;2024-03-08T09:34:16;7.63;;;5.97;;
40288;SDS011;28991;52.028;5.526;2024-03-08T09:36:43;6.63;;;5.95;;
40288;SDS011;28991;52.028;5.526;2024-03-08T09:39:09;6.97;;;5.78;;
40288;SDS011;28991;52.028;5.526;2024-03-08T09:41:39;8.05;;;5.90;;
40288;SDS011;28991;52.028;5.526;2024-03-08T09:44:04;5.63;;;5.05;;
40288;SDS011;28991;52.028;5.526;2024-03-08T09:46:30;6.75;;;5.45;;
40288;SDS011;28991;52.028;5.526;2024-03-08T09:48:56;10.63;;;5.95;;
40288;SDS011;28991;52.028;5.526;2024-03-08T09:51:23;9.13;;;5.80;;
40288;SDS011;28991;52.028;5.526;2024-03-08T09:53:53;6.63;;;5.63;;
40288;SDS011;28991;52.028;5.526;2024-03-08T09:56:21;7.38;;;5.85;;
40288;SDS011;28991;52.028;5.526;2024-03-08T09:58:48;7.32;;;6.10;;
40288;SDS011;28991;52.028;5.526;2024-03-08T10:01:33;6.80;;;6.10;;
40288;SDS011;28991;52.028;5.526;2024-03-08T10:03:58;7.05;;;5.65;;
40288;SDS011;28991;52.028;5.526;2024-03-08T10:06:24;5.50;;;4.90;;
40288;SDS011;28991;52.028;5.526;2024-03-08T10:08:50;8.45;;;5.78;;
40288;SDS011;28991;52.028;5.526;2024-03-08T10:11:19;6.45;;;5.63;;
40288;SDS011;28991;52.028;5.526;2024-03-08T10:13:45;6.60;;;5.80;;
40288;SDS011;28991;52.028;5.526;2024-03-08T10:16:13;9.25;;;6.32;;
40288;SDS011;28991;52.028;5.526;2024-03-08T10:18:39;6.53;;;5.22;;
40288;SDS011;28991;52.028;5.526;2024-03-08T10:21:07;6.18;;;5.32;;
40288;SDS011;28991;52.028;5.526;2024-03-08T10:23:35;6.30;;;5.60;;
40288;SDS011;28991;52.028;5.526;2024-03-08T10:26:11;6.28;;;5.40;;
40288;SDS011;28991;52.028;5.526;2024-03-08T10:28:44;7.20;;;6.15;;
40288;SDS011;28991;52.028;5.526;2024-03-08T10:31:10;10.48;;;6.07;;
40288;SDS011;28991;52.028;5.526;2024-03-08T10:33:36;11.60;;;6.07;;
40288;SDS011;28991;52.028;5.526;2024-03-08T10:36:06;7.07;;;5.43;;
40288;SDS011;28991;52.028;5.526;2024-03-08T10:38:35;8.77;;;5.57;;
40288;SDS011;28991;52.028;5.526;2024-03-08T10:41:03;7.85;;;5.60;;
40288;SDS011;28991;52.028;5.526;2024-03-08T10:43:31;6.70;;;5.95;;
40288;SDS011;28991;52.028;5.526;2024-03-08T10:46:15;6.72;;;5.28;;
40288;SDS011;28991;52.028;5.526;2024-03-08T10:49:04;7.53;;;5.40;;
40288;SDS011;28991;52.028;5.526;2024-03-08T10:51:35;7.75;;;5.80;;
40288;SDS011;28991;52.028;5.526;2024-03-08T10:54:03;6.63;;;5.38;;
40288;SDS011;28991;52.028;5.526;2024-03-08T10:56:30;9.50;;;6.10;;
40288;SDS011;28991;52.028;5.526;2024-03-08T10:58:55;7.50;;;5.28;;
40288;SDS011;28991;52.028;5.526;2024-03-08T11:01:21;8.07;;;5.78;;
40288;SDS011;28991;52.028;5.526;2024-03-08T11:03:47;6.95;;;5.68;;
40288;SDS011;28991;52.028;5.526;2024-03-08T11:11:25;6.10;;;4.75;;
40288;SDS011;28991;52.028;5.526;2024-03-08T11:13:52;6.60;;;5.30;;
40288;SDS011;28991;52.028;5.526;2024-03-08T11:18:54;5.80;;;5.18;;
40288;SDS011;28991;52.028;5.526;2024-03-08T11:21:25;7.72;;;5.65;;
40288;SDS011;28991;52.028;5.526;2024-03-08T11:24:01;8.45;;;6.35;;
40288;SDS011;28991;52.028;5.526;2024-03-08T11:26:28;6.00;;;5.40;;
40288;SDS011;28991;52.028;5.526;2024-03-08T11:28:56;6.80;;;5.22;;
40288;SDS011;28991;52.028;5.526;2024-03-08T11:34:34;9.60;;;5.43;;
40288;SDS011;28991;52.028;5.526;2024-03-08T11:37:00;6.57;;;5.35;;
40288;SDS011;28991;52.028;5.526;2024-03-08T11:39:28;6.75;;;5.93;;
40288;SDS011;28991;52.028;5.526;2024-03-08T11:41:55;9.55;;;5.30;;
40288;SDS011;28991;52.028;5.526;2024-03-08T11:44:21;9.50;;;5.95;;
40288;SDS011;28991;52.028;5.526;2024-03-08T11:46:47;5.28;;;4.18;;
40288;SDS011;28991;52.028;5.526;2024-03-08T11:49:13;6.88;;;5.35;;
40288;SDS011;28991;52.028;5.526;2024-03-08T11:51:39;5.85;;;5.03;;
40288;SDS011;28991;52.028;5.526;2024-03-08T11:54:05;5.25;;;4.72;;
40288;SDS011;28991;52.028;5.526;2024-03-08T11:56:35;4.82;;;4.00;;
40288;SDS011;28991;52.028;5.526;2024-03-08T11:59:01;4.47;;;4.07;;
40288;SDS011;28991;52.028;5.526;2024-03-08T12:01:26;4.53;;;3.72;;
40288;SDS011;28991;52.028;5.526;2024-03-08T12:03:56;6.78;;;5.35;;
40288;SDS011;28991;52.028;5.526;2024-03-08T12:06:24;5.18;;;4.55;;
40288;SDS011;28991;52.028;5.526;2024-03-08T12:08:50;7.88;;;5.95;;
40288;SDS011;28991;52.028;5.526;2024-03-08T12:11:15;7.47;;;4.80;;
40288;SDS011;28991;52.028;5.526;2024-03-08T12:13:48;6.32;;;5.28;;
40288;SDS011;28991;52.028;5.526;2024-03-08T12:16:15;7.60;;;5.45;;
40288;SDS011;28991;52.028;5.526;2024-03-08T12:18:46;7.22;;;5.47;;
40288;SDS011;28991;52.028;5.526;2024-03-08T12:21:13;14.25;;;6.43;;
40288;SDS011;28991;52.028;5.526;2024-03-08T12:23:42;6.75;;;5.20;;
40288;SDS011;28991;52.028;5.526;2024-03-08T12:26:12;8.63;;;7.03;;
40288;SDS011;28991;52.028;5.526;2024-03-08T12:28:42;5.78;;;5.07;;
40288;SDS011;28991;52.028;5.526;2024-03-08T12:31:15;8.23;;;4.97;;
40288;SDS011;28991;52.028;5.526;2024-03-08T12:33:50;8.57;;;5.57;;
40288;SDS011;28991;52.028;5.526;2024-03-08T12:36:17;7.70;;;5.78;;
40288;SDS011;28991;52.028;5.526;2024-03-08T12:38:45;7.10;;;4.68;;
40288;SDS011;28991;52.028;5.526;2024-03-08T12:41:17;6.15;;;4.60;;
40288;SDS011;28991;52.028;5.526;2024-03-08T12:43:44;7.20;;;3.80;;
40288;SDS011;28991;52.028;5.526;2024-03-08T12:46:14;5.78;;;4.70;;
40288;SDS011;28991;52.028;5.526;2024-03-08T12:48:40;5.47;;;4.18;;
40288;SDS011;28991;52.028;5.526;2024-03-08T12:51:08;6.63;;;4.00;;
40288;SDS011;28991;52.028;5.526;2024-03-08T12:53:35;9.55;;;5.15;;
40288;SDS011;28991;52.028;5.526;2024-03-08T12:56:00;6.90;;;4.13;;
40288;SDS011;28991;52.028;5.526;2024-03-08T12:58:26;7.63;;;4.40;;
40288;SDS011;28991;52.028;5.526;2024-03-08T13:00:51;5.13;;;3.83;;
40288;SDS011;28991;52.028;5.526;2024-03-08T13:03:17;13.50;;;5.40;;
40288;SDS011;28991;52.028;5.526;2024-03-08T13:05:43;5.38;;;4.20;;
40288;SDS011;28991;52.028;5.526;2024-03-08T13:08:08;4.88;;;3.65;;
40288;SDS011;28991;52.028;5.526;2024-03-08T13:10:41;4.30;;;3.67;;
40288;SDS011;28991;52.028;5.526;2024-03-08T13:13:09;8.23;;;4.38;;
40288;SDS011;28991;52.028;5.526;2024-03-08T13:15:36;6.07;;;4.80;;
40288;SDS011;28991;52.028;5.526;2024-03-08T13:18:02;6.72;;;4.80;;
40288;SDS011;28991;52.028;5.526;2024-03-08T13:20:28;4.10;;;3.10;;
40288;SDS011;28991;52.028;5.526;2024-03-08T13:22:54;11.15;;;5.68;;
40288;SDS011;28991;52.028;5.526;2024-03-08T13:25:21;9.80;;;6.85;;
40288;SDS011;28991;52.028;5.526;2024-03-08T13:27:47;7.55;;;5.05;;
40288;SDS011;28991;52.028;5.526;2024-03-08T13:30:13;9.38;;;6.18;;
40288;SDS011;28991;52.028;5.526;2024-03-08T13:32:43;6.40;;;5.05;;
40288;SDS011;28991;52.028;5.526;2024-03-08T13:35:09;5.13;;;4.63;;
40288;SDS011;28991;52.028;5.526;2024-03-08T13:37:41;4.18;;;3.63;;
40288;SDS011;28991;52.028;5.526;2024-03-08T13:40:08;5.30;;;3.92;;
40288;SDS011;28991;52.028;5.526;2024-03-08T13:42:41;3.55;;;3.03;;
40288;SDS011;28991;52.028;5.526;2024-03-08T13:45:10;5.20;;;4.00;;
40288;SDS011;28991;52.028;5.526;2024-03-08T13:47:36;6.03;;;4.47;;
40288;SDS011;28991;52.028;5.526;2024-03-08T13:50:02;7.20;;;5.68;;
40288;SDS011;28991;52.028;5.526;2024-03-08T13:52:29;3.85;;;3.50;;
40288;SDS011;28991;52.028;5.526;2024-03-08T13:54:55;4.85;;;4.35;;
40288;SDS011;28991;52.028;5.526;2024-03-08T13:57:21;5.93;;;4.72;;
40288;SDS011;28991;52.028;5.526;2024-03-08T13:59:47;5.38;;;4.05;;
40288;SDS011;28991;52.028;5.526;2024-03-08T14:02:14;4.95;;;4.25;;
40288;SDS011;28991;52.028;5.526;2024-03-08T14:04:40;5.40;;;4.80;;
40288;SDS011;28991;52.028;5.526;2024-03-08T14:07:06;5.90;;;4.50;;
40288;SDS011;28991;52.028;5.526;2024-03-08T14:09:33;7.25;;;4.75;;
40288;SDS011;28991;52.028;5.526;2024-03-08T14:12:02;8.40;;;5.32;;
40288;SDS011;28991;52.028;5.526;2024-03-08T14:14:32;7.13;;;5.50;;
40288;SDS011;28991;52.028;5.526;2024-03-08T14:17:03;6.32;;;5.47;;
40288;SDS011;28991;52.028;5.526;2024-03-08T14:19:29;6.78;;;5.32;;
40288;SDS011;28991;52.028;5.526;2024-03-08T14:21:58;7.93;;;5.88;;
40288;SDS011;28991;52.028;5.526;2024-03-08T14:24:24;6.03;;;4.35;;
40288;SDS011;28991;52.028;5.526;2024-03-08T14:26:50;5.97;;;5.00;;
40288;SDS011;28991;52.028;5.526;2024-03-08T14:29:16;6.32;;;4.95;;
40288;SDS011;28991;52.028;5.526;2024-03-08T14:31:43;5.00;;;4.00;;
40288;SDS011;28991;52.028;5.526;2024-03-08T14:34:10;9.38;;;5.45;;
40288;SDS011;28991;52.028;5.526;2024-03-08T14:36:35;9.40;;;5.40;;
40288;SDS011;28991;52.028;5.526;2024-03-08T14:39:01;7.47;;;5.45;;
40288;SDS011;28991;52.028;5.526;2024-03-08T14:41:27;9.45;;;5.55;;
40288;SDS011;28991;52.028;5.526;2024-03-08T14:43:52;6.35;;;5.03;;
40288;SDS011;28991;52.028;5.526;2024-03-08T14:46:18;13.88;;;5.47;;
40288;SDS011;28991;52.028;5.526;2024-03-08T14:48:46;5.78;;;5.03;;
40288;SDS011;28991;52.028;5.526;2024-03-08T14:51:12;10.30;;;6.78;;
40288;SDS011;28991;52.028;5.526;2024-03-08T14:53:42;9.10;;;5.43;;
40288;SDS011;28991;52.028;5.526;2024-03-08T14:56:10;11.98;;;5.25;;
40288;SDS011;28991;52.028;5.526;2024-03-08T14:58:37;10.38;;;5.28;;
40288;SDS011;28991;52.028;5.526;2024-03-08T15:01:03;18.38;;;6.70;;